Time;durP1;ratioP1;P1;durP2;ratioP2;P2;SDS_P1;SDS_P2;PMS_P1;PMS_P2;Temp;Humidity;BMP_temperature;BMP_pressure;BME280_temperature;BME280_humidity;BME280_pressure;Samples;Min_cycle;Max_cycle;Signal;HPM_P1;HPM_P2
2022/01/12 00:02:17;;;;;;;34.15;13.52;;;;;;;15.00;20.89;99915.44;4975374;28;20041;-80
2022/01/12 00:04:43;;;;;;;36.58;14.65;;;;;;;12.64;22.91;99916.84;4972386;28;20106;-79
2022/01/12 00:07:09;;;;;;;39.92;15.23;;;;;;;11.07;24.88;99925.69;4972522;28;20115;-79
2022/01/12 00:09:35;;;;;;;34.17;12.70;;;;;;;11.38;25.33;99923.19;4971354;28;20135;-79
2022/01/12 00:12:01;;;;;;;37.58;13.55;;;;;;;10.76;25.96;99924.59;4971484;28;20062;-79
2022/01/12 00:14:27;;;;;;;33.25;12.43;;;;;;;11.13;25.75;99929.97;4972237;28;20341;-79
2022/01/12 00:16:58;;;;;;;34.72;13.68;;;;;;;12.29;23.80;99922.09;4964939;28;20035;-79
2022/01/12 00:19:26;;;;;;;28.75;12.93;;;;;;;11.75;24.33;99928.53;4972368;28;20702;-79
2022/01/12 00:21:55;;;;;;;29.58;12.23;;;;;;;12.68;23.80;99924.19;4968871;28;20030;-79
2022/01/12 00:24:22;;;;;;;29.95;11.75;;;;;;;14.19;21.67;99922.75;4972545;28;20115;-79
2022/01/12 00:35:03;;;;;;;27.30;11.35;;;;;;;11.18;25.25;99937.31;4973065;28;20050;-79
2022/01/12 00:37:29;;;;;;;27.63;12.70;;;;;;;10.87;25.65;99937.06;4973310;28;20027;-79
2022/01/12 00:39:58;;;;;;;34.72;13.68;;;;;;;10.97;25.75;99942.34;4981107;28;20089;-80
2022/01/12 00:42:27;;;;;;;33.78;12.70;;;;;;;11.57;24.91;99942.34;4975954;28;20065;-80
2022/01/12 00:44:53;;;;;;;32.30;12.82;;;;;;;11.78;24.57;99938.91;4976277;28;20101;-80
2022/01/12 00:47:20;;;;;;;33.47;13.13;;;;;;;12.80;23.42;99945.66;4976185;28;20054;-80
2022/01/12 00:49:46;;;;;;;28.20;11.20;;;;;;;12.99;23.02;99936.09;4975927;28;20069;-80
2022/01/12 00:52:12;;;;;;;26.23;11.00;;;;;;;12.88;22.95;99940.19;4973789;28;20042;-79
2022/01/12 00:54:38;;;;;;;32.03;12.00;;;;;;;13.52;22.38;99935.22;4976736;28;20030;-80
2022/01/12 00:57:05;;;;;;;32.88;13.70;;;;;;;13.60;21.95;99928.94;4971777;28;20502;-80
2022/01/12 00:59:31;;;;;;;28.08;11.13;;;;;;;12.91;22.92;99923.03;4976064;28;20031;-79
2022/01/12 01:01:57;;;;;;;26.75;11.00;;;;;;;13.73;22.12;99922.47;4977867;28;20047;-79
2022/01/12 01:04:25;;;;;;;32.13;13.23;;;;;;;15.75;19.63;99913.88;4975283;28;20027;-79
2022/01/12 01:06:52;;;;;;;33.35;11.93;;;;;;;16.46;18.95;99911.94;4973941;28;20036;-79
2022/01/12 01:09:18;;;;;;;26.38;11.00;;;;;;;16.41;18.72;99914.91;4970475;28;20130;-79
2022/01/12 01:11:44;;;;;;;27.08;9.77;;;;;;;17.36;17.69;99925.94;4973112;28;20058;-79
2022/01/12 01:14:20;;;;;;;23.10;9.43;;;;;;;18.16;17.22;99918.66;4978044;28;20035;-80
2022/01/12 01:17:04;;;;;;;22.02;8.90;;;;;;;19.59;15.83;99907.31;4975678;28;20050;-79
2022/01/12 01:27:43;;;;;;;20.75;8.60;;;;;;;21.91;13.39;99905.81;4978223;28;20077;-80
2022/01/12 01:30:10;;;;;;;21.05;8.20;;;;;;;21.04;14.17;99910.59;4975566;28;20387;-80
2022/01/12 01:32:36;;;;;;;20.35;8.70;;;;;;;20.30;14.66;99907.06;4974825;28;20035;-80
2022/01/12 01:35:02;;;;;;;21.73;9.82;;;;;;;19.56;15.26;99918.34;4971167;28;20113;-80
2022/01/12 01:37:28;;;;;;;20.42;9.40;;;;;;;18.87;16.11;99936.38;4974970;28;20023;-80
2022/01/12 01:39:54;;;;;;;19.90;8.20;;;;;;;19.25;15.89;99928.25;4990327;28;20035;-80
2022/01/12 01:42:27;;;;;;;20.92;8.75;;;;;;;19.77;15.50;99918.88;4974587;28;20031;-80
2022/01/12 01:55:40;;;;;;;20.08;8.27;;;;;;;15.96;18.78;99925.81;4974129;28;20081;-79
2022/01/12 01:58:07;;;;;;;24.17;10.75;;;;;;;13.35;21.51;99932.41;4973696;28;20113;-80
2022/01/12 02:00:35;;;;;;;20.52;9.02;;;;;;;13.13;22.31;99928.56;4970965;28;20050;-80
2022/01/12 02:03:01;;;;;;;22.27;8.68;;;;;;;14.48;20.51;99928.50;4973846;28;20108;-80
2022/01/12 02:05:27;;;;;;;20.40;8.77;;;;;;;14.33;20.84;99928.97;4969991;28;20098;-80
2022/01/12 02:07:54;;;;;;;23.20;9.35;;;;;;;14.93;20.26;99926.19;4974079;28;20074;-80
2022/01/12 02:10:20;;;;;;;22.58;9.85;;;;;;;15.46;19.61;99922.16;4971700;28;20533;-80
2022/01/12 02:12:46;;;;;;;20.02;8.50;;;;;;;15.06;19.79;99927.13;4976783;28;20035;-80
2022/01/12 02:15:17;;;;;;;24.60;9.98;;;;;;;16.06;18.78;99917.09;4985353;28;20067;-80
2022/01/12 02:40:39;;;;;;;26.92;11.13;;;;;;;15.44;19.49;99922.50;4973124;28;20118;-80
2022/01/12 02:43:15;;;;;;;22.90;9.75;;;;;;;15.60;19.74;99917.22;4972095;28;20098;-80
2022/01/12 02:51:28;;;;;;;17.48;5.82;;;;;;;17.65;16.74;99909.09;4972550;28;20073;-80
2022/01/12 02:53:54;;;;;;;21.25;8.05;;;;;;;16.47;18.10;99917.16;4972753;28;20066;-79
2022/01/12 02:56:23;;;;;;;16.10;7.57;;;;;;;14.47;20.25;99920.50;4972016;28;20131;-80
2022/01/12 02:58:51;;;;;;;22.70;9.10;;;;;;;14.64;20.42;99930.75;4971549;28;20119;-79
2022/01/12 03:03:58;;;;;;;22.52;9.05;;;;;;;16.81;18.55;99913.28;4973168;28;20050;-80
2022/01/12 03:06:28;;;;;;;18.23;7.82;;;;;;;16.59;18.47;99913.66;4974627;28;20037;-79
2022/01/12 03:08:55;;;;;;;18.38;7.63;;;;;;;14.08;21.02;99915.91;4972424;28;20545;-80
2022/01/12 03:11:23;;;;;;;21.45;8.40;;;;;;;15.13;19.30;99925.47;4970991;28;20122;-79
2022/01/12 03:13:50;;;;;;;16.13;7.32;;;;;;;16.26;18.10;99918.28;4969786;28;20110;-79
2022/01/12 03:16:20;;;;;;;13.82;5.47;;;;;;;16.42;17.14;99919.31;4970440;28;20035;-80
2022/01/12 03:18:49;;;;;;;11.70;5.03;;;;;;;16.29;17.03;99917.63;4969305;28;20561;-79
2022/01/12 03:21:17;;;;;;;13.57;6.40;;;;;;;17.74;15.84;99916.16;4972231;28;20027;-79
2022/01/12 03:23:43;;;;;;;13.13;5.20;;;;;;;18.61;15.31;99911.75;4971802;28;20598;-79
2022/01/12 03:26:09;;;;;;;14.57;6.32;;;;;;;19.10;14.97;99917.09;4987334;28;20041;-79
2022/01/12 03:28:38;;;;;;;14.15;6.43;;;;;;;19.46;14.40;99908.56;4972275;28;20035;-79
2022/01/12 03:31:18;;;;;;;15.43;5.25;;;;;;;18.79;15.01;99915.03;4971993;28;20038;-80
2022/01/12 04:09:21;;;;;;;20.23;7.72;;;;;;;12.42;21.92;99917.66;4968868;28;20414;-79
2022/01/12 04:11:47;;;;;;;21.02;7.90;;;;;;;15.92;18.16;99902.69;4971701;28;20041;-79
2022/01/12 04:14:13;;;;;;;18.15;7.53;;;;;;;16.74;17.41;99903.88;4971959;28;20479;-79
2022/01/12 04:16:40;;;;;;;17.30;7.65;;;;;;;17.65;16.30;99904.34;4972701;28;20093;-80
2022/01/12 04:19:06;;;;;;;21.67;7.82;;;;;;;13.58;20.35;99901.66;4964788;28;20451;-79
2022/01/12 04:21:40;;;;;;;24.50;8.05;;;;;;;15.36;18.83;99912.22;4972546;28;20061;-80
2022/01/12 04:24:06;;;;;;;18.85;6.47;;;;;;;16.74;17.49;99912.19;4972001;28;20081;-79
2022/01/12 04:26:32;;;;;;;17.92;8.23;;;;;;;18.07;15.99;99904.09;4972525;28;20046;-80
2022/01/12 04:28:58;;;;;;;16.48;7.22;;;;;;;17.92;16.11;99900.06;4971206;28;20043;-79
2022/01/12 04:31:24;;;;;;;22.05;8.38;;;;;;;14.56;18.96;99912.25;4972651;28;20039;-79
2022/01/12 04:33:51;;;;;;;19.65;8.15;;;;;;;15.04;19.20;99921.09;4973395;28;20027;-80
2022/01/12 04:36:17;;;;;;;15.73;6.97;;;;;;;15.18;18.94;99921.72;4972085;28;20478;-80
2022/01/12 04:38:45;;;;;;;21.63;8.35;;;;;;;14.54;19.70;99923.59;4968100;28;20431;-79
2022/01/12 04:41:11;;;;;;;25.27;8.35;;;;;;;16.00;17.78;99901.84;4969541;28;20027;-79
2022/01/12 04:43:41;;;;;;;24.00;8.00;;;;;;;17.62;16.36;99907.03;4967352;28;20046;-80
2022/01/12 04:46:21;;;;;;;14.95;7.32;;;;;;;17.85;15.84;99913.75;4968258;28;20473;-79
2022/01/12 04:49:10;;;;;;;17.52;6.78;;;;;;;16.64;16.93;99918.97;4962692;28;20062;-79
2022/01/12 04:51:36;;;;;;;19.77;7.63;;;;;;;17.47;16.16;99916.81;4967802;28;20027;-79
2022/01/12 04:54:04;;;;;;;17.75;8.02;;;;;;;18.37;15.85;99922.09;4970486;28;20162;-80
2022/01/12 04:56:30;;;;;;;20.08;6.47;;;;;;;17.86;16.31;99920.91;4969743;28;20023;-79
2022/01/12 04:58:56;;;;;;;19.15;7.43;;;;;;;18.25;15.86;99914.59;4971294;28;20038;-79
2022/01/12 05:01:26;;;;;;;17.23;7.43;;;;;;;19.00;15.30;99917.63;4968383;28;20664;-79
2022/01/12 05:06:52;;;;;;;16.35;6.90;;;;;;;18.89;15.46;99928.47;4988278;28;20321;-79
2022/01/12 05:09:48;;;;;;;;;;;;;;;15.71;18.19;99932.28;4992358;28;20041;-79
2022/01/12 05:15:06;;;;;;;14.13;6.28;;;;;;;13.30;21.01;99936.13;4967576;28;20089;-79
2022/01/12 05:17:34;;;;;;;18.15;6.68;;;;;;;13.42;20.65;99941.84;4967347;28;20447;-79
2022/01/12 05:20:00;;;;;;;16.55;6.28;;;;;;;14.77;19.67;99943.63;4966112;28;20042;-80
2022/01/12 05:22:27;;;;;;;16.63;5.82;;;;;;;13.73;19.91;99941.81;4970765;28;20043;-80
2022/01/12 05:24:53;;;;;;;12.13;5.88;;;;;;;13.64;20.61;99940.97;4971573;28;20066;-79
2022/01/12 05:27:19;;;;;;;14.45;6.18;;;;;;;15.14;18.74;99945.66;4969086;28;20749;-80
2022/01/12 05:29:45;;;;;;;15.40;6.70;;;;;;;14.41;19.15;99950.28;4967324;28;20043;-80
2022/01/12 05:32:11;;;;;;;14.98;6.47;;;;;;;14.53;18.99;99955.16;4963965;28;20042;-80
2022/01/12 05:34:38;;;;;;;11.88;5.22;;;;;;;14.57;19.36;99955.31;4967977;28;20542;-80
2022/01/12 05:37:05;;;;;;;16.15;5.70;;;;;;;15.68;18.13;99952.38;4970001;28;20027;-80
2022/01/12 05:39:31;;;;;;;12.55;4.85;;;;;;;16.68;17.04;99953.22;4971426;28;20027;-80
2022/01/12 05:41:57;;;;;;;14.35;6.03;;;;;;;16.68;17.12;99949.63;4967085;28;20045;-79
2022/01/12 05:44:25;;;;;;;12.10;5.60;;;;;;;14.85;18.75;99960.19;4988604;28;20061;-80
2022/01/12 05:46:53;;;;;;;11.38;5.15;;;;;;;15.05;18.81;99962.25;4972518;28;20022;-80
2022/01/12 05:49:35;;;;;;;12.02;4.55;;;;;;;16.02;17.65;99943.88;4969863;28;20038;-80
2022/01/12 05:52:03;;;;;;;10.73;4.43;;;;;;;16.02;17.80;99948.59;4989182;28;20039;-80
2022/01/12 05:54:29;;;;;;;13.27;5.35;;;;;;;16.41;17.36;99951.75;4981111;28;20466;-80
2022/01/12 05:56:56;;;;;;;16.80;5.30;;;;;;;16.28;17.43;99950.06;4975227;28;20046;-81
2022/01/12 05:59:22;;;;;;;10.98;4.82;;;;;;;15.32;18.09;99963.84;4984874;28;20034;-80
2022/01/12 06:01:48;;;;;;;10.98;4.97;;;;;;;13.11;20.10;99966.69;4971111;28;20099;-80
2022/01/12 06:04:14;;;;;;;13.02;4.93;;;;;;;13.46;20.23;99973.22;4969346;28;20058;-81
2022/01/12 06:06:40;;;;;;;12.82;5.25;;;;;;;13.23;20.62;99973.56;4968674;28;20530;-80
2022/01/12 06:09:06;;;;;;;10.60;5.07;;;;;;;12.26;21.71;99982.47;4965576;28;20114;-79
2022/01/12 06:11:32;;;;;;;12.10;5.05;;;;;;;13.51;20.44;99986.84;4972563;28;20050;-79
2022/01/12 06:13:59;;;;;;;9.43;4.32;;;;;;;13.64;19.89;99982.38;4961221;28;20041;-80
2022/01/12 06:16:25;;;;;;;12.63;4.95;;;;;;;12.60;20.71;99988.31;4964283;28;20041;-80
2022/01/12 06:18:52;;;;;;;13.95;4.93;;;;;;;14.12;19.55;99983.16;4968675;28;20035;-80
2022/01/12 06:21:18;;;;;;;14.88;4.90;;;;;;;14.96;18.54;99988.34;4973565;28;20125;-80
2022/01/12 06:23:44;;;;;;;11.55;5.07;;;;;;;15.17;18.23;99992.03;4974275;28;20107;-80
2022/01/12 06:26:10;;;;;;;11.65;5.00;;;;;;;13.14;19.91;99999.13;4957747;28;20035;-80
2022/01/12 06:28:39;;;;;;;9.68;4.55;;;;;;;14.75;18.45;99998.41;4966444;28;20035;-80
2022/01/12 06:31:11;;;;;;;10.02;4.60;;;;;;;16.50;16.87;99990.50;4962234;28;20059;-80
2022/01/12 06:33:47;;;;;;;10.30;4.75;;;;;;;17.81;15.59;99976.69;4967005;28;20102;-80
2022/01/12 06:36:19;;;;;;;9.05;4.50;;;;;;;16.75;16.19;99984.00;4959423;28;20079;-80
2022/01/12 06:38:46;;;;;;;10.60;4.15;;;;;;;16.52;16.60;99986.28;4958059;28;20038;-80
2022/01/12 06:41:13;;;;;;;11.98;4.40;;;;;;;17.38;15.77;99985.50;4987115;28;20042;-80
2022/01/12 06:43:40;;;;;;;8.20;3.88;;;;;;;18.10;15.29;99987.59;4987363;28;20034;-80
2022/01/12 06:46:07;;;;;;;11.00;4.30;;;;;;;14.98;17.51;100003.44;4968760;28;20106;-80
2022/01/12 06:48:33;;;;;;;7.93;4.53;;;;;;;13.28;19.20;100001.00;4972102;28;20042;-80
2022/01/12 06:51:01;;;;;;;8.95;4.13;;;;;;;15.78;17.06;99999.88;4975445;28;20406;-80
2022/01/12 06:53:27;;;;;;;8.32;4.00;;;;;;;16.31;16.59;99999.25;4971442;28;20110;-80
2022/01/12 06:55:53;;;;;;;8.80;4.25;;;;;;;16.23;16.54;99999.31;4974881;28;20542;-80
2022/01/12 06:58:19;;;;;;;7.38;3.67;;;;;;;15.64;17.09;100018.66;4971687;28;20475;-80
2022/01/12 07:00:47;;;;;;;7.75;3.95;;;;;;;15.74;17.03;100009.16;4974519;28;20088;-80
2022/01/12 07:03:13;;;;;;;9.55;4.15;;;;;;;15.57;17.22;100017.53;4973892;28;20035;-80
2022/01/12 07:05:39;;;;;;;11.75;4.03;;;;;;;13.31;19.57;100025.19;4972836;28;20080;-80
2022/01/12 07:08:05;;;;;;;7.45;4.18;;;;;;;12.36;20.38;100023.56;4974246;28;20122;-80
2022/01/12 07:10:32;;;;;;;8.10;3.90;;;;;;;12.22;20.40;100031.03;4974246;28;20032;-80
2022/01/12 07:12:58;;;;;;;9.40;4.13;;;;;;;13.67;19.28;100017.63;4973988;28;20038;-80
2022/01/12 07:15:24;;;;;;;10.18;4.18;;;;;;;13.15;19.62;100027.53;4970401;28;20037;-80
2022/01/12 07:17:50;;;;;;;8.13;3.55;;;;;;;14.11;18.66;100030.44;4971014;28;20042;-80
2022/01/12 07:20:17;;;;;;;8.55;4.10;;;;;;;16.12;16.81;100028.56;4973274;28;20039;-80
2022/01/12 07:22:43;;;;;;;10.75;3.95;;;;;;;16.93;16.03;100031.81;4969274;28;20089;-80
2022/01/12 07:25:10;;;;;;;12.75;3.90;;;;;;;17.99;15.00;100028.13;4969813;28;20035;-80
2022/01/12 07:27:36;;;;;;;9.18;3.42;;;;;;;18.74;14.24;100034.16;4971690;28;20034;-80
2022/01/12 07:30:04;;;;;;;9.02;3.22;;;;;;;18.38;14.78;100038.56;4985025;28;20065;-80
2022/01/12 07:32:33;;;;;;;8.10;3.50;;;;;;;17.87;14.93;100042.84;4970166;28;20507;-80
2022/01/12 07:34:59;;;;;;;7.95;3.67;;;;;;;16.00;16.76;100036.75;4973797;28;20041;-80
2022/01/12 07:37:25;;;;;;;8.73;3.42;;;;;;;17.77;15.37;100034.13;4973032;28;20058;-80
2022/01/12 07:39:51;;;;;;;10.48;3.72;;;;;;;19.18;13.97;100028.31;4971900;28;20042;-80
2022/01/12 07:42:18;;;;;;;9.93;3.92;;;;;;;19.94;13.47;100036.44;4956841;28;20443;-80
2022/01/12 07:44:44;;;;;;;8.85;2.88;;;;;;;20.50;12.95;100020.31;4974717;28;20027;-80
2022/01/12 07:47:10;;;;;;;7.63;3.58;;;;;;;20.62;12.83;100028.56;4970920;28;20030;-80
2022/01/12 07:49:36;;;;;;;8.57;3.78;;;;;;;19.59;13.45;100034.66;4971812;28;20442;-80
2022/01/12 07:52:06;;;;;;;7.03;3.30;;;;;;;18.41;14.33;100039.84;4972425;28;20149;-80
2022/01/12 07:54:32;;;;;;;8.65;3.50;;;;;;;17.07;15.47;100043.44;4967331;28;20395;-80
2022/01/12 07:56:58;;;;;;;9.52;3.63;;;;;;;16.18;16.36;100054.94;4967437;28;20042;-80
2022/01/12 07:59:25;;;;;;;11.48;4.95;;;;;;;15.52;17.01;100051.72;4971615;28;20106;-80
2022/01/12 08:01:51;;;;;;;15.43;5.20;;;;;;;15.43;17.19;100050.91;4974417;28;20159;-80
2022/01/12 08:04:17;;;;;;;9.57;4.25;;;;;;;14.55;18.10;100060.66;4972809;28;20045;-79
2022/01/12 08:06:43;;;;;;;13.23;5.35;;;;;;;13.58;19.22;100063.66;4989522;28;20371;-80
2022/01/12 08:09:09;;;;;;;17.73;6.70;;;;;;;12.16;21.16;100070.81;4972339;28;20050;-80
2022/01/12 08:11:35;;;;;;;13.90;6.57;;;;;;;12.53;20.82;100058.72;4987310;28;20426;-80
2022/01/12 08:14:01;;;;;;;14.98;6.25;;;;;;;13.08;20.28;100055.53;4970100;28;20038;-80
2022/01/12 08:16:27;;;;;;;14.43;6.20;;;;;;;13.09;20.23;100059.13;4972302;28;20035;-80
2022/01/12 08:18:55;;;;;;;17.42;6.90;;;;;;;14.35;18.78;100056.53;4973218;28;20430;-80
2022/01/12 08:21:22;;;;;;;15.32;6.78;;;;;;;15.11;18.12;100068.03;4974012;28;20430;-80
2022/01/12 08:23:48;;;;;;;19.35;7.07;;;;;;;15.26;17.92;100066.72;4972354;28;20121;-80
2022/01/12 08:26:14;;;;;;;15.27;7.43;;;;;;;13.07;20.05;100064.91;4974405;28;20042;-80
2022/01/12 08:28:40;;;;;;;14.63;6.47;;;;;;;13.94;19.17;100063.50;4971773;28;20043;-80
2022/01/12 08:31:06;;;;;;;17.58;7.15;;;;;;;12.33;20.90;100059.97;4973382;28;20046;-80
2022/01/12 08:33:33;;;;;;;17.25;7.55;;;;;;;12.14;21.41;100067.53;4972750;28;20066;-80
2022/01/12 08:35:59;;;;;;;13.02;5.68;;;;;;;13.50;19.86;100065.25;4974321;28;20081;-80
2022/01/12 08:38:25;;;;;;;13.10;6.03;;;;;;;14.30;19.14;100064.19;4969567;28;20130;-80
2022/01/12 08:40:52;;;;;;;12.95;5.55;;;;;;;13.53;19.20;100080.34;4970274;28;20062;-80
2022/01/12 08:43:18;;;;;;;14.63;6.28;;;;;;;14.19;18.85;100074.66;4972721;28;20491;-80
2022/01/12 08:45:44;;;;;;;13.30;5.35;;;;;;;16.51;16.56;100067.03;4971316;28;20388;-80
2022/01/12 08:48:10;;;;;;;13.73;4.97;;;;;;;17.40;15.66;100066.50;4970042;28;20490;-80
2022/01/12 08:50:36;;;;;;;14.23;5.97;;;;;;;18.09;15.20;100074.91;4971097;28;20510;-80
2022/01/12 08:53:03;;;;;;;11.30;5.93;;;;;;;18.82;14.76;100077.72;4980990;28;20038;-80
2022/01/12 08:55:29;;;;;;;12.25;5.57;;;;;;;19.73;14.09;100065.69;4972766;28;20517;-80
2022/01/12 08:57:58;;;;;;;12.93;6.00;;;;;;;20.55;13.38;100066.66;4962338;28;20031;-80
2022/01/12 09:00:25;;;;;;;13.00;5.53;;;;;;;20.98;12.92;100079.63;4975693;28;20034;-80
2022/01/12 09:02:51;;;;;;;14.90;6.05;;;;;;;21.32;12.69;100071.22;4988529;28;20046;-80
2022/01/12 09:05:17;;;;;;;10.13;4.35;;;;;;;21.28;12.32;100075.13;4973297;28;20059;-80
2022/01/12 09:07:43;;;;;;;10.07;5.25;;;;;;;20.65;12.82;100075.25;4975717;28;20033;-80
2022/01/12 09:10:10;;;;;;;11.63;4.85;;;;;;;20.42;13.22;100085.47;4976269;28;20049;-78
2022/01/12 09:12:37;;;;;;;8.95;4.32;;;;;;;20.58;13.03;100077.09;4976302;28;20041;-80
2022/01/12 09:15:08;;;;;;;9.93;4.05;;;;;;;19.70;13.56;100083.13;4980326;28;20030;-79
2022/01/12 09:17:35;;;;;;;11.07;4.85;;;;;;;17.45;15.27;100084.91;4971997;28;20050;-81
2022/01/12 09:20:03;;;;;;;9.63;4.65;;;;;;;17.45;15.30;100077.41;4973431;28;20035;-81
2022/01/12 09:22:29;;;;;;;8.70;4.55;;;;;;;17.82;14.80;100079.16;4979754;28;20031;-79
2022/01/12 09:24:55;;;;;;;9.18;4.20;;;;;;;19.15;14.01;100070.81;4973027;28;20546;-79
2022/01/12 09:27:21;;;;;;;9.40;5.05;;;;;;;18.82;14.20;100059.06;4968324;28;20160;-79
2022/01/12 09:29:47;;;;;;;9.40;4.60;;;;;;;17.30;15.08;100066.91;4988700;28;20121;-80
2022/01/12 09:32:14;;;;;;;11.88;4.65;;;;;;;17.60;14.96;100060.09;4976967;28;20035;-79
2022/01/12 09:34:40;;;;;;;14.25;5.63;;;;;;;17.17;15.83;100063.28;4975668;28;20043;-79
2022/01/12 09:37:06;;;;;;;7.60;3.80;;;;;;;17.40;15.45;100060.13;4973420;28;20038;-79
2022/01/12 09:39:34;;;;;;;9.55;4.25;;;;;;;17.82;15.07;100058.91;4976172;28;20045;-79
2022/01/12 09:42:01;;;;;;;11.40;5.40;;;;;;;18.13;14.87;100052.81;4976641;28;20031;-79
2022/01/12 09:44:31;;;;;;;8.98;4.28;;;;;;;18.97;14.03;100047.19;4975901;28;20520;-79
2022/01/12 09:47:00;;;;;;;10.18;4.82;;;;;;;19.58;13.72;100045.00;4991341;28;20046;-79
2022/01/12 09:49:26;;;;;;;10.05;4.22;;;;;;;19.47;13.13;100049.47;4975408;28;20073;-79
2022/01/12 09:51:55;;;;;;;10.25;4.18;;;;;;;17.60;15.12;100057.34;4978321;28;20093;-79
2022/01/12 09:54:21;;;;;;;10.18;4.90;;;;;;;16.25;16.10;100058.81;4981515;28;20121;-79
2022/01/12 09:56:48;;;;;;;10.43;4.93;;;;;;;16.23;16.51;100050.03;4976306;28;20402;-79
2022/01/12 09:59:14;;;;;;;13.05;5.85;;;;;;;16.57;16.50;100049.84;4971685;28;20073;-79
2022/01/12 10:01:43;;;;;;;16.77;6.75;;;;;;;17.27;15.90;100040.63;4977009;28;20410;-79
2022/01/12 10:04:11;;;;;;;14.07;6.18;;;;;;;17.81;15.34;100023.94;4949333;28;20031;-79
2022/01/12 10:06:40;;;;;;;13.18;6.32;;;;;;;18.32;14.79;100022.47;4972569;28;20057;-79
2022/01/12 10:09:07;;;;;;;16.73;7.38;;;;;;;18.94;14.21;100014.50;4973568;28;20038;-79
2022/01/12 10:11:34;;;;;;;14.45;6.88;;;;;;;19.01;13.88;100011.09;4973860;28;20042;-79
2022/01/12 10:14:02;;;;;;;15.25;6.75;;;;;;;19.09;14.25;100012.94;4974007;28;20090;-79
2022/01/12 10:16:28;;;;;;;14.38;6.13;;;;;;;19.57;13.85;100006.34;4989004;28;20057;-79
2022/01/12 10:18:57;;;;;;;17.38;7.28;;;;;;;16.76;15.63;100007.78;4974909;28;20035;-80
2022/01/12 10:21:29;;;;;;;13.88;6.68;;;;;;;17.37;15.50;100011.66;4976330;28;20031;-79
2022/01/12 10:23:57;;;;;;;13.25;5.85;;;;;;;17.66;15.36;100013.50;4961400;28;20050;-79
2022/01/12 10:26:44;;;;;;;13.27;5.63;;;;;;;18.54;14.39;99999.75;4987509;28;20656;-79
2022/01/12 10:29:13;;;;;;;18.60;7.18;;;;;;;18.55;14.68;99996.59;4968132;28;20569;-79
2022/01/12 10:31:48;;;;;;;15.27;7.30;;;;;;;17.40;15.19;100001.81;4969358;28;20390;-80
2022/01/12 10:34:15;;;;;;;13.73;5.63;;;;;;;16.98;15.79;100009.41;4970560;28;20031;-81
2022/01/12 10:36:43;;;;;;;15.07;6.22;;;;;;;15.93;17.00;100009.59;4975512;28;20035;-79
2022/01/12 10:39:12;;;;;;;18.65;7.55;;;;;;;15.46;17.38;100028.16;4975286;28;20037;-79
2022/01/12 10:42:03;;;;;;;19.25;9.13;;;;;;;17.47;15.54;100025.09;4974973;28;20039;-79
2022/01/12 10:44:35;;;;;;;16.70;6.65;;;;;;;18.62;14.48;100029.41;4971680;28;20056;-80
2022/01/12 10:47:16;;;;;;;14.85;7.25;;;;;;;19.48;13.73;100023.25;4975177;28;20039;-79
2022/01/12 10:50:07;;;;;;;21.85;8.85;;;;;;;20.07;13.31;100022.41;4973149;28;20462;-79
2022/01/12 10:52:35;;;;;;;;;;;;;;;20.53;12.83;100015.97;4982217;28;20062;-79
2022/01/12 10:55:07;;;;;;;68.97;16.90;;;;;;;21.07;12.78;100000.06;4972842;28;19918;-79
2022/01/12 10:57:37;;;;;;;23.33;8.88;;;;;;;21.31;12.23;100001.72;4973943;28;20034;-79
2022/01/12 11:00:18;;;;;;;15.02;6.15;;;;;;;19.79;13.36;100002.97;4966588;28;20038;-79
2022/01/12 11:02:50;;;;;;;15.93;7.18;;;;;;;19.31;13.75;99999.25;4975044;28;20031;-79
2022/01/12 11:05:18;;;;;;;15.85;6.90;;;;;;;19.16;13.84;100002.00;4975922;28;20039;-79
2022/01/12 11:07:44;;;;;;;19.58;8.02;;;;;;;18.89;14.00;99998.03;4974547;28;20038;-79
2022/01/12 11:10:12;;;;;;;17.48;6.97;;;;;;;18.62;14.13;100005.16;4972778;28;20065;-79
2022/01/12 11:12:39;;;;;;;16.45;7.13;;;;;;;19.04;14.07;100005.63;4974486;28;20035;-79
2022/01/12 11:15:10;;;;;;;17.20;7.10;;;;;;;19.10;14.00;100004.22;4972588;28;20034;-79
2022/01/12 11:17:41;;;;;;;20.75;9.50;;;;;;;19.19;13.88;100004.06;4973105;28;20053;-81
2022/01/12 11:20:26;;;;;;;18.80;7.38;;;;;;;19.37;14.28;99997.03;4972941;28;20034;-80
2022/01/12 11:23:09;;;;;;;11.60;5.72;;;;;;;18.53;14.39;99998.94;4974156;28;20042;-80
2022/01/12 11:25:43;;;;;;;20.00;7.13;;;;;;;17.73;15.25;99986.78;4975266;28;20034;-80
2022/01/12 11:28:22;;;;;;;18.30;6.43;;;;;;;16.68;15.80;100005.91;4971458;28;20038;-80
2022/01/12 11:30:51;;;;;;;20.92;8.30;;;;;;;16.81;16.20;100001.22;4973152;28;20045;-80
2022/01/12 11:33:33;;;;;;;15.38;6.55;;;;;;;15.27;17.62;100016.59;4974784;28;20114;-80
2022/01/12 11:36:33;;;;;;;17.95;8.02;;;;;;;14.27;18.82;100004.81;4973534;28;20491;-80
2022/01/12 11:39:09;;;;;;;17.10;7.15;;;;;;;16.37;16.35;99995.16;4971882;28;20050;-80
2022/01/12 11:41:38;;;;;;;15.07;6.28;;;;;;;16.66;16.06;99990.75;4970953;28;20031;-80
2022/01/12 11:44:09;;;;;;;16.40;6.45;;;;;;;14.92;17.77;100006.69;4973186;28;20027;-80
2022/01/12 11:46:53;;;;;;;19.50;7.95;;;;;;;14.99;17.76;100012.56;4972591;28;20034;-80
2022/01/12 11:49:39;;;;;;;18.08;8.30;;;;;;;14.73;18.25;100006.19;4970405;28;20390;-80
2022/01/12 11:52:24;;;;;;;18.48;8.30;;;;;;;15.66;17.15;99988.66;4965448;28;20117;-80
2022/01/12 11:54:53;;;;;;;18.23;8.27;;;;;;;16.34;16.49;99984.72;4994257;28;20030;-80
2022/01/12 11:57:32;;;;;;;21.45;9.05;;;;;;;17.74;15.12;99982.00;4973450;28;20023;-79
2022/01/12 12:00:04;;;;;;;21.30;9.07;;;;;;;17.27;15.14;99987.91;4971513;28;20503;-80
2022/01/12 12:02:50;;;;;;;20.60;8.20;;;;;;;17.90;14.64;99977.38;4974295;28;20039;-80
2022/01/12 12:05:17;;;;;;;20.13;9.05;;;;;;;18.36;14.32;99976.13;4972953;28;20058;-80
2022/01/12 12:08:02;;;;;;;18.05;8.45;;;;;;;17.74;14.84;99979.22;4974690;28;20531;-80
2022/01/12 12:10:30;;;;;;;21.52;9.55;;;;;;;18.14;14.28;99973.81;4970681;28;20042;-80
2022/01/12 12:12:57;;;;;;;19.88;9.68;;;;;;;19.19;14.06;99959.53;4970804;28;20039;-80
2022/01/12 12:15:25;;;;;;;29.38;11.80;;;;;;;20.02;13.41;99959.34;4972676;28;20074;-80
2022/01/12 12:17:53;;;;;;;18.08;7.32;;;;;;;19.79;13.12;99964.75;4967306;28;20061;-80
2022/01/12 12:20:21;;;;;;;22.88;10.18;;;;;;;19.06;13.55;99975.50;4972680;28;20035;-80
2022/01/12 12:22:49;;;;;;;18.55;7.72;;;;;;;18.41;14.04;99987.00;4970350;28;20031;-80
2022/01/12 12:25:18;;;;;;;19.55;8.05;;;;;;;18.53;14.10;99993.38;4971155;28;20038;-79
2022/01/12 12:27:49;;;;;;;29.17;11.77;;;;;;;14.88;17.04;100006.56;4966463;28;20161;-80
2022/01/12 12:30:18;;;;;;;19.52;8.90;;;;;;;16.18;16.44;100007.81;4973761;28;20080;-80
2022/01/12 12:32:52;;;;;;;25.38;10.93;;;;;;;16.79;15.83;100009.06;4974395;28;20510;-80
2022/01/12 12:35:24;;;;;;;21.25;9.35;;;;;;;16.56;15.96;100000.28;4975816;28;20043;-79
2022/01/12 12:38:00;;;;;;;21.10;9.15;;;;;;;17.08;15.50;99995.13;4976275;28;20398;-80
2022/01/12 12:40:30;;;;;;;16.13;8.02;;;;;;;18.09;14.88;99997.09;4973181;28;20026;-80
2022/01/12 12:43:04;;;;;;;21.13;8.88;;;;;;;18.24;14.33;99998.38;4975582;28;20039;-80
2022/01/12 12:45:48;;;;;;;24.60;8.57;;;;;;;16.89;15.54;99994.81;4976218;28;20035;-80
2022/01/12 12:48:16;;;;;;;20.08;8.38;;;;;;;16.94;15.79;99987.06;4990311;28;20043;-80
2022/01/12 12:50:43;;;;;;;24.48;8.98;;;;;;;17.37;15.18;99992.22;4992596;28;20065;-79
2022/01/12 12:53:10;;;;;;;23.70;10.35;;;;;;;17.57;15.37;100002.50;4976300;28;20041;-80
2022/01/12 12:55:42;;;;;;;20.00;9.63;;;;;;;17.30;15.25;99991.97;4974026;28;20034;-80
2022/01/12 12:58:10;;;;;;;20.98;8.77;;;;;;;17.81;14.80;99990.59;4976107;28;20197;-80
2022/01/12 13:00:37;;;;;;;19.77;8.82;;;;;;;18.26;14.43;100001.59;4976565;28;20061;-80
2022/01/12 13:03:05;;;;;;;21.08;8.82;;;;;;;17.64;15.00;100004.69;4974623;28;20458;-80
2022/01/12 13:05:34;;;;;;;19.85;7.88;;;;;;;17.29;15.15;100005.03;4974474;28;20058;-79
2022/01/12 13:08:01;;;;;;;17.60;7.65;;;;;;;16.69;15.48;100007.50;4976416;28;20513;-80
2022/01/12 13:10:29;;;;;;;15.52;7.25;;;;;;;16.75;15.68;99999.81;4975764;28;20117;-80